Ottery St Mary, United Kingdom
Current Conditions -  °F | °C
As of 12:20 AM on Friday 19 Dec 2014 (Local Time) from EGTE Reporting Station
Broken Clouds Broken Clouds  
Wind Chill: 55°   Ceiling: 2000
Heat Index: 55°   Visibility: 6mi
Dew Point: 50°   Wind: 16mph
Humidity: 82%   Direction: 230°SW
Pressure: 29.88"   Gusts: NA
Location:  50.75°N, 3.27°W
Report Text: EGTE 190020Z 23014KT 9999 BKN020 13/10 Q1012
Loading
Personal Weather Stations






























Interactive Weather Map New forecast layout! Learn more

10-Day Weather Forecast

Advertisements
Track Severe Weather on mobile